sensor_id;sensor_type;location;lat;lon;timestamp;P1;durP1;ratioP1;P2;durP2;ratioP2
7545;SDS011;3814;51.454;12.616;2023-05-18T00:00:33;10.60;;;2.40;;
7545;SDS011;3814;51.454;12.616;2023-05-18T00:02:59;7.63;;;2.30;;
7545;SDS011;3814;51.454;12.616;2023-05-18T00:05:25;8.52;;;2.35;;
7545;SDS011;3814;51.454;12.616;2023-05-18T00:07:51;7.88;;;2.60;;
7545;SDS011;3814;51.454;12.616;2023-05-18T00:10:17;9.38;;;2.50;;
7545;SDS011;3814;51.454;12.616;2023-05-18T00:12:42;8.68;;;2.50;;
7545;SDS011;3814;51.454;12.616;2023-05-18T00:15:07;7.13;;;2.42;;
7545;SDS011;3814;51.454;12.616;2023-05-18T00:17:34;7.10;;;2.28;;
7545;SDS011;3814;51.454;12.616;2023-05-18T00:19:59;5.60;;;2.33;;
7545;SDS011;3814;51.454;12.616;2023-05-18T00:22:24;8.80;;;2.50;;
7545;SDS011;3814;51.454;12.616;2023-05-18T00:24:50;6.13;;;2.33;;
7545;SDS011;3814;51.454;12.616;2023-05-18T00:27:15;9.02;;;2.30;;
7545;SDS011;3814;51.454;12.616;2023-05-18T00:29:41;5.45;;;2.25;;
7545;SDS011;3814;51.454;12.616;2023-05-18T00:32:06;7.88;;;2.72;;
7545;SDS011;3814;51.454;12.616;2023-05-18T00:34:33;7.15;;;2.30;;
7545;SDS011;3814;51.454;12.616;2023-05-18T00:36:58;8.10;;;2.92;;
7545;SDS011;3814;51.454;12.616;2023-05-18T00:39:23;6.95;;;2.38;;
7545;SDS011;3814;51.454;12.616;2023-05-18T00:41:48;5.95;;;2.70;;
7545;SDS011;3814;51.454;12.616;2023-05-18T00:44:14;6.72;;;2.35;;
7545;SDS011;3814;51.454;12.616;2023-05-18T00:46:39;7.05;;;2.47;;
7545;SDS011;3814;51.454;12.616;2023-05-18T00:49:05;6.63;;;2.58;;
7545;SDS011;3814;51.454;12.616;2023-05-18T00:51:31;7.82;;;2.50;;
7545;SDS011;3814;51.454;12.616;2023-05-18T00:53:56;4.80;;;2.20;;
7545;SDS011;3814;51.454;12.616;2023-05-18T00:56:23;5.93;;;2.20;;
7545;SDS011;3814;51.454;12.616;2023-05-18T00:58:50;6.88;;;2.40;;
7545;SDS011;3814;51.454;12.616;2023-05-18T01:01:17;5.35;;;2.20;;
7545;SDS011;3814;51.454;12.616;2023-05-18T01:03:43;4.78;;;2.30;;
7545;SDS011;3814;51.454;12.616;2023-05-18T01:06:08;7.40;;;2.60;;
7545;SDS011;3814;51.454;12.616;2023-05-18T01:08:34;6.63;;;2.33;;
7545;SDS011;3814;51.454;12.616;2023-05-18T01:11:09;5.68;;;2.55;;
7545;SDS011;3814;51.454;12.616;2023-05-18T01:13:46;3.53;;;1.90;;
7545;SDS011;3814;51.454;12.616;2023-05-18T01:16:38;6.30;;;2.40;;
7545;SDS011;3814;51.454;12.616;2023-05-18T01:22:15;6.65;;;2.40;;
7545;SDS011;3814;51.454;12.616;2023-05-18T01:24:47;7.25;;;2.33;;
7545;SDS011;3814;51.454;12.616;2023-05-18T01:27:16;6.38;;;2.40;;
7545;SDS011;3814;51.454;12.616;2023-05-18T01:29:42;7.47;;;2.55;;
7545;SDS011;3814;51.454;12.616;2023-05-18T01:32:16;8.52;;;2.40;;
7545;SDS011;3814;51.454;12.616;2023-05-18T01:34:43;8.52;;;2.40;;
7545;SDS011;3814;51.454;12.616;2023-05-18T01:37:08;8.98;;;2.30;;
7545;SDS011;3814;51.454;12.616;2023-05-18T01:39:34;6.10;;;2.33;;
7545;SDS011;3814;51.454;12.616;2023-05-18T01:42:00;6.40;;;2.08;;
7545;SDS011;3814;51.454;12.616;2023-05-18T01:44:47;8.57;;;2.70;;
7545;SDS011;3814;51.454;12.616;2023-05-18T01:53:00;6.25;;;2.40;;
7545;SDS011;3814;51.454;12.616;2023-05-18T01:55:30;8.10;;;2.55;;
7545;SDS011;3814;51.454;12.616;2023-05-18T01:57:56;5.13;;;2.17;;
7545;SDS011;3814;51.454;12.616;2023-05-18T02:00:22;8.43;;;2.60;;
7545;SDS011;3814;51.454;12.616;2023-05-18T02:02:48;6.68;;;2.38;;
7545;SDS011;3814;51.454;12.616;2023-05-18T02:05:13;6.72;;;2.65;;
7545;SDS011;3814;51.454;12.616;2023-05-18T02:07:39;4.43;;;2.05;;
7545;SDS011;3814;51.454;12.616;2023-05-18T02:10:05;5.15;;;2.00;;
7545;SDS011;3814;51.454;12.616;2023-05-18T02:12:31;7.32;;;2.15;;
7545;SDS011;3814;51.454;12.616;2023-05-18T02:14:56;5.30;;;2.45;;
7545;SDS011;3814;51.454;12.616;2023-05-18T02:17:22;6.45;;;2.60;;
7545;SDS011;3814;51.454;12.616;2023-05-18T02:19:51;5.50;;;2.17;;
7545;SDS011;3814;51.454;12.616;2023-05-18T02:22:17;5.18;;;2.40;;
7545;SDS011;3814;51.454;12.616;2023-05-18T02:24:42;6.22;;;2.40;;
7545;SDS011;3814;51.454;12.616;2023-05-18T02:27:10;6.68;;;2.22;;
7545;SDS011;3814;51.454;12.616;2023-05-18T02:29:35;8.40;;;2.58;;
7545;SDS011;3814;51.454;12.616;2023-05-18T02:32:01;7.18;;;2.50;;
7545;SDS011;3814;51.454;12.616;2023-05-18T02:34:27;5.03;;;2.22;;
7545;SDS011;3814;51.454;12.616;2023-05-18T02:36:56;8.40;;;2.30;;
7545;SDS011;3814;51.454;12.616;2023-05-18T02:39:22;6.60;;;2.47;;
7545;SDS011;3814;51.454;12.616;2023-05-18T02:41:47;6.57;;;2.47;;
7545;SDS011;3814;51.454;12.616;2023-05-18T02:44:13;5.07;;;2.25;;
7545;SDS011;3814;51.454;12.616;2023-05-18T02:46:38;5.95;;;2.33;;
7545;SDS011;3814;51.454;12.616;2023-05-18T02:49:03;4.97;;;2.42;;
7545;SDS011;3814;51.454;12.616;2023-05-18T02:51:29;4.90;;;2.28;;
7545;SDS011;3814;51.454;12.616;2023-05-18T02:53:55;5.45;;;2.33;;
7545;SDS011;3814;51.454;12.616;2023-05-18T02:56:21;11.75;;;2.60;;
7545;SDS011;3814;51.454;12.616;2023-05-18T02:58:47;7.47;;;2.45;;
7545;SDS011;3814;51.454;12.616;2023-05-18T03:01:12;5.47;;;2.38;;
7545;SDS011;3814;51.454;12.616;2023-05-18T03:03:38;6.05;;;2.50;;
7545;SDS011;3814;51.454;12.616;2023-05-18T03:06:04;4.97;;;2.40;;
7545;SDS011;3814;51.454;12.616;2023-05-18T03:08:30;7.30;;;2.47;;
7545;SDS011;3814;51.454;12.616;2023-05-18T03:10:55;4.95;;;2.40;;
7545;SDS011;3814;51.454;12.616;2023-05-18T03:13:21;9.27;;;2.67;;
7545;SDS011;3814;51.454;12.616;2023-05-18T03:15:46;6.07;;;2.92;;
7545;SDS011;3814;51.454;12.616;2023-05-18T03:18:13;5.97;;;2.55;;
7545;SDS011;3814;51.454;12.616;2023-05-18T03:20:38;5.20;;;2.40;;
7545;SDS011;3814;51.454;12.616;2023-05-18T03:23:04;5.65;;;2.47;;
7545;SDS011;3814;51.454;12.616;2023-05-18T03:25:29;9.25;;;2.75;;
7545;SDS011;3814;51.454;12.616;2023-05-18T03:27:56;5.38;;;2.50;;
7545;SDS011;3814;51.454;12.616;2023-05-18T03:30:22;7.45;;;2.55;;
7545;SDS011;3814;51.454;12.616;2023-05-18T03:32:47;4.93;;;2.03;;
7545;SDS011;3814;51.454;12.616;2023-05-18T03:35:13;8.45;;;2.60;;
7545;SDS011;3814;51.454;12.616;2023-05-18T03:37:39;7.72;;;2.63;;
7545;SDS011;3814;51.454;12.616;2023-05-18T03:40:08;4.93;;;2.50;;
7545;SDS011;3814;51.454;12.616;2023-05-18T03:42:38;8.30;;;2.38;;
7545;SDS011;3814;51.454;12.616;2023-05-18T03:45:03;4.72;;;2.00;;
7545;SDS011;3814;51.454;12.616;2023-05-18T03:47:30;6.45;;;2.55;;
7545;SDS011;3814;51.454;12.616;2023-05-18T03:49:55;6.13;;;2.20;;
7545;SDS011;3814;51.454;12.616;2023-05-18T03:52:20;7.95;;;2.30;;
7545;SDS011;3814;51.454;12.616;2023-05-18T03:54:47;7.75;;;2.42;;
7545;SDS011;3814;51.454;12.616;2023-05-18T03:57:14;5.63;;;2.50;;
7545;SDS011;3814;51.454;12.616;2023-05-18T03:59:42;8.15;;;2.45;;
7545;SDS011;3814;51.454;12.616;2023-05-18T04:02:08;7.18;;;2.35;;
7545;SDS011;3814;51.454;12.616;2023-05-18T04:04:35;9.57;;;2.45;;
7545;SDS011;3814;51.454;12.616;2023-05-18T04:07:00;7.30;;;2.40;;
7545;SDS011;3814;51.454;12.616;2023-05-18T04:09:26;6.40;;;2.90;;
7545;SDS011;3814;51.454;12.616;2023-05-18T04:11:52;6.60;;;2.47;;
7545;SDS011;3814;51.454;12.616;2023-05-18T04:14:17;7.03;;;2.50;;
7545;SDS011;3814;51.454;12.616;2023-05-18T04:16:44;5.85;;;2.40;;
7545;SDS011;3814;51.454;12.616;2023-05-18T04:19:10;6.45;;;2.50;;
7545;SDS011;3814;51.454;12.616;2023-05-18T04:21:37;6.00;;;2.40;;
7545;SDS011;3814;51.454;12.616;2023-05-18T04:24:02;7.43;;;2.70;;
7545;SDS011;3814;51.454;12.616;2023-05-18T04:26:34;6.57;;;2.47;;
7545;SDS011;3814;51.454;12.616;2023-05-18T04:29:02;7.15;;;2.47;;
7545;SDS011;3814;51.454;12.616;2023-05-18T04:31:28;5.95;;;2.65;;
7545;SDS011;3814;51.454;12.616;2023-05-18T04:33:54;9.40;;;2.60;;
7545;SDS011;3814;51.454;12.616;2023-05-18T04:36:21;8.27;;;2.60;;
7545;SDS011;3814;51.454;12.616;2023-05-18T04:38:50;5.78;;;2.20;;
7545;SDS011;3814;51.454;12.616;2023-05-18T04:41:18;5.65;;;2.35;;
7545;SDS011;3814;51.454;12.616;2023-05-18T04:43:46;5.35;;;2.15;;
7545;SDS011;3814;51.454;12.616;2023-05-18T04:46:11;8.45;;;2.30;;
7545;SDS011;3814;51.454;12.616;2023-05-18T04:48:38;5.65;;;2.13;;
7545;SDS011;3814;51.454;12.616;2023-05-18T04:51:03;8.85;;;2.00;;
7545;SDS011;3814;51.454;12.616;2023-05-18T04:53:28;3.92;;;2.45;;
7545;SDS011;3814;51.454;12.616;2023-05-18T04:55:57;5.95;;;2.10;;
7545;SDS011;3814;51.454;12.616;2023-05-18T04:58:24;6.45;;;2.00;;
7545;SDS011;3814;51.454;12.616;2023-05-18T05:00:51;8.02;;;2.30;;
7545;SDS011;3814;51.454;12.616;2023-05-18T05:03:17;9.93;;;2.20;;
7545;SDS011;3814;51.454;12.616;2023-05-18T05:05:42;5.20;;;2.10;;
7545;SDS011;3814;51.454;12.616;2023-05-18T05:08:07;6.15;;;2.13;;
7545;SDS011;3814;51.454;12.616;2023-05-18T05:10:33;6.38;;;2.30;;
7545;SDS011;3814;51.454;12.616;2023-05-18T05:12:58;3.92;;;1.92;;
7545;SDS011;3814;51.454;12.616;2023-05-18T05:15:24;5.65;;;1.92;;
7545;SDS011;3814;51.454;12.616;2023-05-18T05:17:49;4.18;;;1.55;;
7545;SDS011;3814;51.454;12.616;2023-05-18T05:20:15;5.18;;;2.25;;
7545;SDS011;3814;51.454;12.616;2023-05-18T05:22:40;3.80;;;1.90;;
7545;SDS011;3814;51.454;12.616;2023-05-18T05:25:06;5.88;;;2.05;;
7545;SDS011;3814;51.454;12.616;2023-05-18T05:27:31;5.35;;;1.80;;
7545;SDS011;3814;51.454;12.616;2023-05-18T05:29:57;5.68;;;2.08;;
7545;SDS011;3814;51.454;12.616;2023-05-18T05:32:22;4.35;;;1.80;;
7545;SDS011;3814;51.454;12.616;2023-05-18T05:34:47;4.88;;;1.88;;
7545;SDS011;3814;51.454;12.616;2023-05-18T05:37:14;4.82;;;1.75;;
7545;SDS011;3814;51.454;12.616;2023-05-18T05:39:39;7.55;;;2.22;;
7545;SDS011;3814;51.454;12.616;2023-05-18T05:42:05;5.85;;;2.08;;
7545;SDS011;3814;51.454;12.616;2023-05-18T05:44:31;8.30;;;2.10;;
7545;SDS011;3814;51.454;12.616;2023-05-18T05:46:57;9.05;;;2.20;;
7545;SDS011;3814;51.454;12.616;2023-05-18T05:49:23;5.60;;;1.80;;
7545;SDS011;3814;51.454;12.616;2023-05-18T05:51:49;6.38;;;1.90;;
7545;SDS011;3814;51.454;12.616;2023-05-18T05:54:15;5.95;;;2.08;;
7545;SDS011;3814;51.454;12.616;2023-05-18T05:56:40;4.13;;;1.90;;
7545;SDS011;3814;51.454;12.616;2023-05-18T05:59:05;6.95;;;2.20;;
7545;SDS011;3814;51.454;12.616;2023-05-18T06:01:31;6.30;;;1.95;;
7545;SDS011;3814;51.454;12.616;2023-05-18T06:03:58;7.85;;;2.35;;
7545;SDS011;3814;51.454;12.616;2023-05-18T06:06:23;8.40;;;2.25;;
7545;SDS011;3814;51.454;12.616;2023-05-18T06:08:51;6.20;;;2.30;;
7545;SDS011;3814;51.454;12.616;2023-05-18T06:11:16;5.30;;;1.90;;
7545;SDS011;3814;51.454;12.616;2023-05-18T06:13:42;9.27;;;1.70;;
7545;SDS011;3814;51.454;12.616;2023-05-18T06:16:07;7.60;;;1.73;;
7545;SDS011;3814;51.454;12.616;2023-05-18T06:18:33;6.50;;;1.58;;
7545;SDS011;3814;51.454;12.616;2023-05-18T06:20:58;6.63;;;1.50;;
7545;SDS011;3814;51.454;12.616;2023-05-18T06:23:24;8.63;;;1.95;;
7545;SDS011;3814;51.454;12.616;2023-05-18T06:25:50;4.20;;;1.50;;
7545;SDS011;3814;51.454;12.616;2023-05-18T06:28:15;7.07;;;1.50;;
7545;SDS011;3814;51.454;12.616;2023-05-18T06:30:41;6.25;;;1.55;;
7545;SDS011;3814;51.454;12.616;2023-05-18T06:33:06;3.65;;;1.40;;
7545;SDS011;3814;51.454;12.616;2023-05-18T06:35:32;6.65;;;1.70;;
7545;SDS011;3814;51.454;12.616;2023-05-18T06:37:58;6.80;;;1.60;;
7545;SDS011;3814;51.454;12.616;2023-05-18T06:40:23;6.93;;;1.30;;
7545;SDS011;3814;51.454;12.616;2023-05-18T06:42:48;6.45;;;1.40;;
7545;SDS011;3814;51.454;12.616;2023-05-18T06:45:14;5.30;;;1.38;;
7545;SDS011;3814;51.454;12.616;2023-05-18T06:47:40;9.25;;;1.70;;
7545;SDS011;3814;51.454;12.616;2023-05-18T06:50:09;8.45;;;1.52;;
7545;SDS011;3814;51.454;12.616;2023-05-18T06:52:52;5.97;;;1.45;;
7545;SDS011;3814;51.454;12.616;2023-05-18T06:55:17;7.70;;;1.48;;
7545;SDS011;3814;51.454;12.616;2023-05-18T06:57:42;4.93;;;1.65;;
7545;SDS011;3814;51.454;12.616;2023-05-18T07:00:08;7.38;;;1.52;;
7545;SDS011;3814;51.454;12.616;2023-05-18T07:02:36;5.20;;;1.45;;
7545;SDS011;3814;51.454;12.616;2023-05-18T07:05:01;7.97;;;1.35;;
7545;SDS011;3814;51.454;12.616;2023-05-18T07:07:29;6.15;;;1.45;;
7545;SDS011;3814;51.454;12.616;2023-05-18T07:09:55;5.43;;;1.70;;
7545;SDS011;3814;51.454;12.616;2023-05-18T07:12:21;4.38;;;1.75;;
7545;SDS011;3814;51.454;12.616;2023-05-18T07:14:46;4.78;;;1.27;;
7545;SDS011;3814;51.454;12.616;2023-05-18T07:17:11;6.75;;;1.70;;
7545;SDS011;3814;51.454;12.616;2023-05-18T07:19:37;6.18;;;1.40;;
7545;SDS011;3814;51.454;12.616;2023-05-18T07:22:02;5.38;;;1.60;;
7545;SDS011;3814;51.454;12.616;2023-05-18T07:24:28;5.43;;;1.67;;
7545;SDS011;3814;51.454;12.616;2023-05-18T07:26:54;11.45;;;1.80;;
7545;SDS011;3814;51.454;12.616;2023-05-18T07:29:19;4.85;;;1.48;;
7545;SDS011;3814;51.454;12.616;2023-05-18T07:31:45;6.50;;;1.73;;
7545;SDS011;3814;51.454;12.616;2023-05-18T07:34:10;6.03;;;1.90;;
7545;SDS011;3814;51.454;12.616;2023-05-18T07:36:35;7.95;;;1.85;;
7545;SDS011;3814;51.454;12.616;2023-05-18T07:39:01;4.43;;;1.60;;
7545;SDS011;3814;51.454;12.616;2023-05-18T07:41:27;5.22;;;1.58;;
7545;SDS011;3814;51.454;12.616;2023-05-18T07:43:52;6.93;;;1.90;;
7545;SDS011;3814;51.454;12.616;2023-05-18T07:46:18;5.20;;;1.80;;
7545;SDS011;3814;51.454;12.616;2023-05-18T07:48:43;5.43;;;1.77;;
7545;SDS011;3814;51.454;12.616;2023-05-18T07:51:11;9.70;;;1.60;;
7545;SDS011;3814;51.454;12.616;2023-05-18T07:53:37;8.57;;;1.80;;
7545;SDS011;3814;51.454;12.616;2023-05-18T07:56:03;5.88;;;1.58;;
7545;SDS011;3814;51.454;12.616;2023-05-18T07:58:29;7.55;;;1.75;;
7545;SDS011;3814;51.454;12.616;2023-05-18T08:00:54;6.28;;;1.52;;
7545;SDS011;3814;51.454;12.616;2023-05-18T08:03:20;7.53;;;1.88;;
7545;SDS011;3814;51.454;12.616;2023-05-18T08:05:45;5.13;;;1.30;;
7545;SDS011;3814;51.454;12.616;2023-05-18T08:08:10;8.52;;;1.35;;
7545;SDS011;3814;51.454;12.616;2023-05-18T08:10:39;6.03;;;1.40;;
7545;SDS011;3814;51.454;12.616;2023-05-18T08:13:05;7.80;;;1.40;;
7545;SDS011;3814;51.454;12.616;2023-05-18T08:15:30;6.18;;;1.40;;
7545;SDS011;3814;51.454;12.616;2023-05-18T08:17:56;6.57;;;1.73;;
7545;SDS011;3814;51.454;12.616;2023-05-18T08:20:21;6.03;;;1.58;;
7545;SDS011;3814;51.454;12.616;2023-05-18T08:22:47;4.95;;;1.63;;
7545;SDS011;3814;51.454;12.616;2023-05-18T08:25:26;6.68;;;1.45;;
7545;SDS011;3814;51.454;12.616;2023-05-18T08:27:52;5.35;;;1.38;;
7545;SDS011;3814;51.454;12.616;2023-05-18T08:30:17;7.75;;;1.40;;
7545;SDS011;3814;51.454;12.616;2023-05-18T08:32:45;6.68;;;1.50;;
7545;SDS011;3814;51.454;12.616;2023-05-18T08:35:11;4.50;;;1.50;;
7545;SDS011;3814;51.454;12.616;2023-05-18T08:37:36;6.32;;;1.60;;
7545;SDS011;3814;51.454;12.616;2023-05-18T08:40:02;8.25;;;1.90;;
7545;SDS011;3814;51.454;12.616;2023-05-18T08:42:32;7.28;;;1.80;;
7545;SDS011;3814;51.454;12.616;2023-05-18T08:45:21;7.55;;;1.35;;
7545;SDS011;3814;51.454;12.616;2023-05-18T08:48:00;5.53;;;1.60;;
7545;SDS011;3814;51.454;12.616;2023-05-18T08:50:27;9.48;;;1.90;;
7545;SDS011;3814;51.454;12.616;2023-05-18T08:52:55;4.15;;;1.38;;
7545;SDS011;3814;51.454;12.616;2023-05-18T08:55:24;4.50;;;1.35;;
7545;SDS011;3814;51.454;12.616;2023-05-18T08:57:53;5.90;;;1.30;;
7545;SDS011;3814;51.454;12.616;2023-05-18T09:00:20;6.10;;;1.30;;
7545;SDS011;3814;51.454;12.616;2023-05-18T09:02:47;5.10;;;1.40;;
7545;SDS011;3814;51.454;12.616;2023-05-18T09:05:12;3.47;;;1.20;;
7545;SDS011;3814;51.454;12.616;2023-05-18T09:07:40;7.60;;;1.33;;
7545;SDS011;3814;51.454;12.616;2023-05-18T09:10:06;5.05;;;1.27;;
7545;SDS011;3814;51.454;12.616;2023-05-18T09:12:34;5.10;;;1.35;;
7545;SDS011;3814;51.454;12.616;2023-05-18T09:15:00;2.78;;;1.23;;
7545;SDS011;3814;51.454;12.616;2023-05-18T09:17:25;4.45;;;1.20;;
7545;SDS011;3814;51.454;12.616;2023-05-18T09:19:51;5.57;;;1.73;;
7545;SDS011;3814;51.454;12.616;2023-05-18T09:22:17;4.45;;;1.40;;
7545;SDS011;3814;51.454;12.616;2023-05-18T09:24:43;6.60;;;1.60;;
7545;SDS011;3814;51.454;12.616;2023-05-18T09:27:08;5.18;;;1.20;;
7545;SDS011;3814;51.454;12.616;2023-05-18T09:29:35;6.65;;;1.25;;
7545;SDS011;3814;51.454;12.616;2023-05-18T09:32:01;3.95;;;1.00;;
7545;SDS011;3814;51.454;12.616;2023-05-18T09:34:38;5.07;;;1.15;;
7545;SDS011;3814;51.454;12.616;2023-05-18T09:37:04;5.65;;;1.27;;
7545;SDS011;3814;51.454;12.616;2023-05-18T09:39:30;6.28;;;1.20;;
7545;SDS011;3814;51.454;12.616;2023-05-18T09:41:55;6.07;;;1.30;;
7545;SDS011;3814;51.454;12.616;2023-05-18T09:44:29;4.15;;;1.08;;
7545;SDS011;3814;51.454;12.616;2023-05-18T09:46:57;5.00;;;1.23;;
7545;SDS011;3814;51.454;12.616;2023-05-18T09:49:23;4.75;;;1.20;;
7545;SDS011;3814;51.454;12.616;2023-05-18T09:51:50;4.22;;;1.40;;
7545;SDS011;3814;51.454;12.616;2023-05-18T09:54:16;3.25;;;1.10;;
7545;SDS011;3814;51.454;12.616;2023-05-18T09:56:42;5.07;;;1.23;;
7545;SDS011;3814;51.454;12.616;2023-05-18T09:59:09;3.70;;;1.10;;
7545;SDS011;3814;51.454;12.616;2023-05-18T10:01:36;2.72;;;1.10;;
7545;SDS011;3814;51.454;12.616;2023-05-18T10:04:04;7.10;;;1.20;;
7545;SDS011;3814;51.454;12.616;2023-05-18T10:06:30;3.97;;;1.05;;
7545;SDS011;3814;51.454;12.616;2023-05-18T10:08:56;7.00;;;1.20;;
7545;SDS011;3814;51.454;12.616;2023-05-18T10:11:22;7.10;;;1.17;;
7545;SDS011;3814;51.454;12.616;2023-05-18T10:13:52;4.00;;;1.20;;
7545;SDS011;3814;51.454;12.616;2023-05-18T10:16:18;4.85;;;1.08;;
7545;SDS011;3814;51.454;12.616;2023-05-18T10:18:44;3.22;;;1.08;;
7545;SDS011;3814;51.454;12.616;2023-05-18T10:21:09;4.53;;;1.10;;
7545;SDS011;3814;51.454;12.616;2023-05-18T10:23:38;5.60;;;1.20;;
7545;SDS011;3814;51.454;12.616;2023-05-18T10:26:05;4.65;;;1.10;;
7545;SDS011;3814;51.454;12.616;2023-05-18T10:28:38;6.45;;;1.15;;
7545;SDS011;3814;51.454;12.616;2023-05-18T10:31:06;4.55;;;1.23;;
7545;SDS011;3814;51.454;12.616;2023-05-18T10:33:32;5.78;;;1.10;;
7545;SDS011;3814;51.454;12.616;2023-05-18T10:36:00;3.78;;;1.17;;
7545;SDS011;3814;51.454;12.616;2023-05-18T10:38:27;5.60;;;1.10;;
7545;SDS011;3814;51.454;12.616;2023-05-18T10:40:53;6.80;;;1.52;;
7545;SDS011;3814;51.454;12.616;2023-05-18T10:43:23;5.22;;;1.15;;
7545;SDS011;3814;51.454;12.616;2023-05-18T10:45:52;4.90;;;1.20;;
7545;SDS011;3814;51.454;12.616;2023-05-18T10:48:19;5.65;;;1.25;;
7545;SDS011;3814;51.454;12.616;2023-05-18T10:50:48;5.18;;;1.25;;
7545;SDS011;3814;51.454;12.616;2023-05-18T10:53:16;7.43;;;1.30;;
7545;SDS011;3814;51.454;12.616;2023-05-18T10:55:44;6.97;;;1.50;;
7545;SDS011;3814;51.454;12.616;2023-05-18T10:58:11;3.45;;;1.00;;
7545;SDS011;3814;51.454;12.616;2023-05-18T11:00:38;6.22;;;1.38;;
7545;SDS011;3814;51.454;12.616;2023-05-18T11:03:09;4.20;;;1.20;;
7545;SDS011;3814;51.454;12.616;2023-05-18T11:05:37;4.00;;;0.95;;
7545;SDS011;3814;51.454;12.616;2023-05-18T11:08:04;6.70;;;1.20;;
7545;SDS011;3814;51.454;12.616;2023-05-18T11:10:38;4.43;;;1.17;;
7545;SDS011;3814;51.454;12.616;2023-05-18T11:13:06;5.80;;;1.30;;
7545;SDS011;3814;51.454;12.616;2023-05-18T11:18:19;4.53;;;1.25;;
7545;SDS011;3814;51.454;12.616;2023-05-18T11:20:45;4.57;;;1.20;;
7545;SDS011;3814;51.454;12.616;2023-05-18T11:23:12;4.90;;;1.17;;
7545;SDS011;3814;51.454;12.616;2023-05-18T11:25:44;5.85;;;1.00;;
7545;SDS011;3814;51.454;12.616;2023-05-18T11:28:12;6.45;;;1.30;;
7545;SDS011;3814;51.454;12.616;2023-05-18T11:33:12;7.10;;;1.23;;
7545;SDS011;3814;51.454;12.616;2023-05-18T11:41:30;4.03;;;1.08;;
7545;SDS011;3814;51.454;12.616;2023-05-18T11:47:01;5.22;;;1.00;;
7545;SDS011;3814;51.454;12.616;2023-05-18T11:52:19;4.95;;;1.10;;
7545;SDS011;3814;51.454;12.616;2023-05-18T11:54:48;4.50;;;1.13;;
7545;SDS011;3814;51.454;12.616;2023-05-18T11:57:16;3.70;;;1.27;;
7545;SDS011;3814;51.454;12.616;2023-05-18T11:59:43;3.50;;;1.10;;
7545;SDS011;3814;51.454;12.616;2023-05-18T12:02:12;4.30;;;1.17;;
7545;SDS011;3814;51.454;12.616;2023-05-18T12:04:44;4.60;;;1.20;;
7545;SDS011;3814;51.454;12.616;2023-05-18T12:07:17;4.68;;;1.10;;
7545;SDS011;3814;51.454;12.616;2023-05-18T12:09:43;4.22;;;1.05;;
7545;SDS011;3814;51.454;12.616;2023-05-18T12:12:10;4.75;;;1.08;;
7545;SDS011;3814;51.454;12.616;2023-05-18T12:14:40;3.92;;;1.30;;
7545;SDS011;3814;51.454;12.616;2023-05-18T12:17:06;3.17;;;1.10;;
7545;SDS011;3814;51.454;12.616;2023-05-18T12:19:42;5.25;;;1.42;;
7545;SDS011;3814;51.454;12.616;2023-05-18T12:22:08;3.95;;;1.30;;
7545;SDS011;3814;51.454;12.616;2023-05-18T12:24:35;3.83;;;1.00;;
7545;SDS011;3814;51.454;12.616;2023-05-18T12:27:04;2.95;;;1.00;;
7545;SDS011;3814;51.454;12.616;2023-05-18T12:29:31;4.53;;;1.35;;
7545;SDS011;3814;51.454;12.616;2023-05-18T12:31:57;5.63;;;1.40;;
7545;SDS011;3814;51.454;12.616;2023-05-18T12:34:26;3.28;;;1.40;;
7545;SDS011;3814;51.454;12.616;2023-05-18T12:36:53;4.70;;;1.15;;
7545;SDS011;3814;51.454;12.616;2023-05-18T12:39:19;5.15;;;1.35;;
7545;SDS011;3814;51.454;12.616;2023-05-18T12:41:45;4.05;;;1.10;;
7545;SDS011;3814;51.454;12.616;2023-05-18T12:44:10;3.25;;;1.20;;
7545;SDS011;3814;51.454;12.616;2023-05-18T12:46:36;2.70;;;1.10;;
7545;SDS011;3814;51.454;12.616;2023-05-18T12:49:01;5.88;;;1.48;;
7545;SDS011;3814;51.454;12.616;2023-05-18T12:51:35;4.65;;;1.05;;
7545;SDS011;3814;51.454;12.616;2023-05-18T12:54:02;4.05;;;1.10;;
7545;SDS011;3814;51.454;12.616;2023-05-18T12:59:16;6.70;;;1.10;;
7545;SDS011;3814;51.454;12.616;2023-05-18T13:01:42;5.15;;;1.05;;
7545;SDS011;3814;51.454;12.616;2023-05-18T13:04:09;6.53;;;1.80;;
7545;SDS011;3814;51.454;12.616;2023-05-18T13:06:36;3.08;;;1.20;;
7545;SDS011;3814;51.454;12.616;2023-05-18T13:09:02;4.90;;;1.10;;
7545;SDS011;3814;51.454;12.616;2023-05-18T13:11:27;3.92;;;1.23;;
7545;SDS011;3814;51.454;12.616;2023-05-18T13:13:57;4.63;;;1.20;;
7545;SDS011;3814;51.454;12.616;2023-05-18T13:16:28;5.47;;;1.27;;
7545;SDS011;3814;51.454;12.616;2023-05-18T13:18:57;5.30;;;1.10;;
7545;SDS011;3814;51.454;12.616;2023-05-18T13:21:24;4.82;;;1.30;;
7545;SDS011;3814;51.454;12.616;2023-05-18T13:23:50;5.35;;;1.15;;
7545;SDS011;3814;51.454;12.616;2023-05-18T13:26:15;4.18;;;0.93;;
7545;SDS011;3814;51.454;12.616;2023-05-18T13:28:43;4.55;;;1.50;;
7545;SDS011;3814;51.454;12.616;2023-05-18T13:31:10;3.60;;;1.05;;
7545;SDS011;3814;51.454;12.616;2023-05-18T13:33:35;6.60;;;1.50;;
7545;SDS011;3814;51.454;12.616;2023-05-18T13:36:00;7.00;;;1.50;;
7545;SDS011;3814;51.454;12.616;2023-05-18T13:38:26;5.90;;;1.40;;
7545;SDS011;3814;51.454;12.616;2023-05-18T13:40:51;4.88;;;1.30;;
7545;SDS011;3814;51.454;12.616;2023-05-18T13:43:17;5.28;;;1.33;;
7545;SDS011;3814;51.454;12.616;2023-05-18T13:45:42;4.75;;;1.70;;
7545;SDS011;3814;51.454;12.616;2023-05-18T13:48:07;2.65;;;1.13;;
7545;SDS011;3814;51.454;12.616;2023-05-18T13:50:33;7.68;;;1.60;;
7545;SDS011;3814;51.454;12.616;2023-05-18T13:52:59;5.63;;;1.15;;
7545;SDS011;3814;51.454;12.616;2023-05-18T13:55:25;3.67;;;1.40;;
7545;SDS011;3814;51.454;12.616;2023-05-18T13:57:50;7.65;;;1.60;;
7545;SDS011;3814;51.454;12.616;2023-05-18T14:00:15;5.38;;;1.13;;
7545;SDS011;3814;51.454;12.616;2023-05-18T14:02:43;3.90;;;1.20;;
7545;SDS011;3814;51.454;12.616;2023-05-18T14:05:09;4.07;;;1.00;;
7545;SDS011;3814;51.454;12.616;2023-05-18T14:07:35;6.18;;;1.30;;
7545;SDS011;3814;51.454;12.616;2023-05-18T14:10:02;5.43;;;1.40;;
7545;SDS011;3814;51.454;12.616;2023-05-18T14:12:27;4.63;;;1.40;;
7545;SDS011;3814;51.454;12.616;2023-05-18T14:14:53;5.90;;;1.40;;
7545;SDS011;3814;51.454;12.616;2023-05-18T14:17:18;4.65;;;1.38;;
7545;SDS011;3814;51.454;12.616;2023-05-18T14:19:45;4.00;;;1.45;;
7545;SDS011;3814;51.454;12.616;2023-05-18T14:22:10;4.40;;;1.58;;
7545;SDS011;3814;51.454;12.616;2023-05-18T14:24:36;6.50;;;1.63;;
7545;SDS011;3814;51.454;12.616;2023-05-18T14:27:01;2.60;;;1.30;;
7545;SDS011;3814;51.454;12.616;2023-05-18T14:29:27;3.20;;;1.42;;
7545;SDS011;3814;51.454;12.616;2023-05-18T14:31:54;5.93;;;1.70;;
7545;SDS011;3814;51.454;12.616;2023-05-18T14:34:19;4.88;;;1.40;;
7545;SDS011;3814;51.454;12.616;2023-05-18T14:36:44;5.55;;;1.55;;
7545;SDS011;3814;51.454;12.616;2023-05-18T14:39:10;5.20;;;1.42;;
7545;SDS011;3814;51.454;12.616;2023-05-18T14:41:38;4.97;;;1.38;;
7545;SDS011;3814;51.454;12.616;2023-05-18T14:44:04;4.70;;;1.30;;
7545;SDS011;3814;51.454;12.616;2023-05-18T14:46:32;6.00;;;1.38;;
7545;SDS011;3814;51.454;12.616;2023-05-18T14:48:58;4.00;;;1.40;;
7545;SDS011;3814;51.454;12.616;2023-05-18T14:51:23;4.97;;;1.38;;
7545;SDS011;3814;51.454;12.616;2023-05-18T14:53:48;6.80;;;1.60;;
7545;SDS011;3814;51.454;12.616;2023-05-18T14:56:14;6.32;;;1.30;;
7545;SDS011;3814;51.454;12.616;2023-05-18T14:58:39;3.72;;;1.20;;
7545;SDS011;3814;51.454;12.616;2023-05-18T15:01:04;5.38;;;1.70;;
7545;SDS011;3814;51.454;12.616;2023-05-18T15:03:30;5.55;;;1.40;;
7545;SDS011;3814;51.454;12.616;2023-05-18T15:05:55;4.80;;;1.42;;
7545;SDS011;3814;51.454;12.616;2023-05-18T15:08:22;3.28;;;1.52;;
7545;SDS011;3814;51.454;12.616;2023-05-18T15:10:47;5.30;;;1.40;;
7545;SDS011;3814;51.454;12.616;2023-05-18T15:13:14;4.85;;;1.45;;
7545;SDS011;3814;51.454;12.616;2023-05-18T15:15:40;6.93;;;1.80;;
7545;SDS011;3814;51.454;12.616;2023-05-18T15:18:07;6.47;;;1.25;;
7545;SDS011;3814;51.454;12.616;2023-05-18T15:20:32;3.42;;;1.30;;
7545;SDS011;3814;51.454;12.616;2023-05-18T15:22:58;5.13;;;1.40;;
7545;SDS011;3814;51.454;12.616;2023-05-18T15:25:24;2.72;;;1.33;;